Tilton, IL (61833)

1:37 PM CDT on September 29, 2016 (GMT -0500)
Vermilion County Emergency Management Agency | | Change Station

Elev 655 ft 40.08 °N, 87.63 °W | Updated 1 second ago

Mostly Cloudy
Mostly Cloudy
65.5 °F
Feels Like 65.5 °F
N
3.5
Wind Variable Wind from North
Gusts 3.5 mph

Today
High -- | Low -- °F
--% Chance of Precip.
Yesterday
High -- | Low -- °F
Precip. -- in
Pressure 30.09 in
Visibility 10.0 miles
Clouds Mostly Cloudy 2900 ft
Mostly Cloudy 6500 ft
Dew Point 66 °F
Humidity 100%
Rainfall 0.05 in
Snow Depth Not available.
6:45 AM 6:35 PM
Waning Crescent, 1% visible
METAR KDNV 291815Z AUTO 01006KT 10SM BKN029 BKN065 19/13 A3009 RMK AO2 T01920125
Pressure 30.09 in
Visibility 10.0 miles
Clouds Mostly Cloudy 2900 ft
Mostly Cloudy 6500 ft
Dew Point 66 °F
Humidity 100%
Rainfall 0.05 in
Snow Depth Not available.
6:45 AM 6:35 PM
Waning Crescent, 1% visible
METAR KDNV 291815Z AUTO 01006KT 10SM BKN029 BKN065 19/13 A3009 RMK AO2 T01920125

10-Day Weather Forecast

Almanac

Astronomy

Sep. 29, 2016 Rise Set
Actual Time
Civil Twilight
Nautical Twilight
Astronomical Twilight
Moon
Length of Visible Light
Length of Day
Tomorrow will be .
, % of the Moon is Illuminated

Today's Extremes

State Highs State Lows

Community

WunderPhotos

Upload Photos

1,942,545 photos uploaded!

WunderBlog® & News

Nearby

Air Quality

  Air Quality AQ Index Pollutant
Not available.

Snow Depth

Station Depth Elevation

Earthquake Activity

City Distance Mag. Time & Date
Minimum magnitude displayed is 2.5.

Coastal Water Temperatures

Place Temperature

Stations

Nearby Weather Stations

Station Location Temp. Windchill Dew Point Humidity Wind Precip. Elev Updated Type
                   

Watches & Warnings

There are currently no watches in effect.